createdAt,value
2023-04-17T00:02:30.093Z,-11139.69
2023-04-17T00:05:36.253Z,-11143.50
2023-04-17T00:08:43.733Z,-11148.25
2023-04-17T00:11:50.082Z,-11133.78
2023-04-17T00:14:57.544Z,-11124.09
2023-04-17T00:18:03.568Z,-11127.91
2023-04-17T00:21:09.652Z,-11129.88
2023-04-17T00:24:15.691Z,-11135.34
2023-04-17T00:27:21.610Z,-11140.41
2023-04-17T00:30:28.869Z,-11137.16
2023-04-17T00:33:35.038Z,-11141.81
2023-04-17T00:36:41.091Z,-11141.94
2023-04-17T00:39:47.220Z,-11134.91
2023-04-17T00:42:56.323Z,-11134.06
2023-04-17T00:46:04.855Z,-11133.22
2023-04-17T00:49:12.337Z,-11118.63
2023-04-17T00:52:28.805Z,-11113.56
2023-04-17T00:55:36.699Z,-11117.22
2023-04-17T00:58:43.256Z,-11118.47
2023-04-17T01:01:50.720Z,-11111.59
2023-04-17T01:04:57.088Z,-11119.19
2023-04-17T01:08:03.032Z,-11112.16
2023-04-17T01:11:09.364Z,-11104.88
2023-04-17T01:14:16.407Z,-11109.34
2023-04-17T01:17:26.402Z,-11110.19
2023-04-17T01:20:34.281Z,-11112.72
2023-04-17T01:23:46.502Z,-11103.88
2023-04-17T01:26:54.275Z,-11093.34
2023-04-17T01:30:00.584Z,-11102.75
2023-04-17T01:33:08.390Z,-11103.88
2023-04-17T01:36:14.811Z,-11120.31
2023-04-17T01:39:20.642Z,-11122.00
2023-04-17T01:42:28.362Z,-11122.56
2023-04-17T01:45:34.356Z,-11128.31
2023-04-17T01:48:40.818Z,-11137.31
2023-04-17T01:51:46.786Z,-11134.91
2023-04-17T01:54:52.736Z,-11131.53
2023-04-17T01:58:00.355Z,-11123.69
2023-04-17T02:01:06.814Z,-11132.81
2023-04-17T02:04:13.385Z,-11133.78
2023-04-17T02:07:19.992Z,-11137.72
2023-04-17T02:10:26.262Z,-11136.88
2023-04-17T02:13:33.896Z,-11134.34
2023-04-17T02:16:45.775Z,-11117.09
2023-04-17T02:19:51.717Z,-11118.63
2023-04-17T02:22:57.478Z,-11114.41
2023-04-17T02:26:03.736Z,-11110.63
2023-04-17T02:29:11.440Z,-11121.44
2023-04-17T02:32:18.530Z,-11113.84
2023-04-17T02:35:26.202Z,-11131.69
2023-04-17T02:38:32.490Z,-11130.56
2023-04-17T02:41:38.765Z,-11133.38
2023-04-17T02:44:47.074Z,-11137.72
2023-04-17T02:47:53.293Z,-11138.56
2023-04-17T02:50:59.323Z,-11132.09
2023-04-17T02:54:05.905Z,-11112.03
2023-04-17T02:57:12.482Z,-11115.97
2023-04-17T03:00:20.923Z,-11121.72
2023-04-17T03:03:31.261Z,-11126.63
2023-04-17T03:06:37.478Z,-11122.69
2023-04-17T03:09:45.880Z,-11120.44
2023-04-17T03:12:52.044Z,-11129.03
2023-04-17T03:16:00.471Z,-11120.44
2023-04-17T03:19:06.909Z,-11127.06
2023-04-17T03:22:13.479Z,-11111.31
2023-04-17T03:25:19.835Z,-11116.94
2023-04-17T03:28:26.580Z,-11132.53
2023-04-17T03:31:34.059Z,-11130.84
2023-04-17T03:34:40.415Z,-11139.00
2023-04-17T03:37:46.858Z,-11141.94
2023-04-17T03:40:53.104Z,-11144.34
2023-04-17T03:44:02.293Z,-11140.41
2023-04-17T03:47:11.536Z,-11138.00
2023-04-17T03:50:18.077Z,-11141.09
2023-04-17T03:53:24.274Z,-11139.84
2023-04-17T03:56:30.257Z,-11139.13
2023-04-17T03:59:36.390Z,-11143.06
2023-04-17T04:02:44.016Z,-11145.88
2023-04-17T04:05:50.151Z,-11146.44
2023-04-17T04:08:56.149Z,-11145.03
2023-04-17T04:12:02.539Z,-11149.25
2023-04-17T04:15:10.241Z,-11143.34
2023-04-17T04:18:18.352Z,-11151.50
2023-04-17T04:21:24.945Z,-11151.63
2023-04-17T04:24:31.838Z,-11149.81
2023-04-17T04:27:39.714Z,-11151.91
2023-04-17T04:30:51.132Z,-11152.47
2023-04-17T04:33:59.717Z,-11157.41
2023-04-17T04:37:05.819Z,-11155.72
2023-04-17T04:40:12.532Z,-11168.09
2023-04-17T04:43:20.812Z,-11156.13
2023-04-17T04:46:28.523Z,-11155.84
2023-04-17T04:49:36.349Z,-11153.03
2023-04-17T04:52:42.337Z,-11156.84
2023-04-17T04:55:48.797Z,-11158.53
2023-04-17T04:58:55.336Z,-11161.75
2023-04-17T05:02:01.610Z,-11156.56
2023-04-17T05:05:11.127Z,-11161.63
2023-04-17T05:08:17.307Z,-11163.03
2023-04-17T05:11:23.494Z,-11160.91
2023-04-17T05:14:30.649Z,-11169.22
2023-04-17T05:17:37.650Z,-11171.75
2023-04-17T05:20:45.696Z,-11168.09
2023-04-17T05:23:52.368Z,-11169.50
2023-04-17T05:26:58.604Z,-11166.69
2023-04-17T05:30:05.781Z,-11167.25
2023-04-17T05:33:11.989Z,-11178.47
2023-04-17T05:36:19.868Z,-11180.72
2023-04-17T05:39:26.377Z,-11183.13
2023-04-17T05:42:32.394Z,-11170.06
2023-04-17T05:45:39.308Z,-11168.94
2023-04-17T05:48:45.757Z,-11172.72
2023-04-17T05:51:53.329Z,-11169.50
2023-04-17T05:54:59.355Z,-11170.63
2023-04-17T05:58:20.518Z,-11154.88
2023-04-17T06:01:30.092Z,-11161.91
2023-04-17T06:04:36.741Z,-11161.19
2023-04-17T06:07:44.471Z,-11161.63
2023-04-17T06:10:52.409Z,-11170.19
2023-04-17T06:13:58.608Z,-11165.84
2023-04-17T06:17:04.795Z,-11177.06
2023-04-17T06:20:11.315Z,-11165.84
2023-04-17T06:23:19.280Z,-11166.25
2023-04-17T06:26:25.688Z,-11161.63
2023-04-17T06:29:32.124Z,-11175.66
2023-04-17T06:32:42.938Z,-11170.75
2023-04-17T06:35:49.416Z,-11180.72
2023-04-17T06:38:56.953Z,-11179.75
2023-04-17T06:42:03.155Z,-11182.97
2023-04-17T06:45:10.309Z,-11185.94
2023-04-17T06:48:16.694Z,-11193.09
2023-04-17T06:51:25.052Z,-11184.38
2023-04-17T06:54:32.834Z,-11193.25
2023-04-17T06:57:39.470Z,-11191.41
2023-04-17T07:00:45.794Z,-11192.97
2023-04-17T07:03:52.433Z,-11204.91
2023-04-17T07:06:59.010Z,-11202.66
2023-04-17T07:10:07.632Z,-11209.56
2023-04-17T07:13:14.075Z,-11217.56
2023-04-17T07:16:22.960Z,-11205.91
2023-04-17T07:19:29.210Z,-11209.00
2023-04-17T07:22:35.616Z,-11208.00
2023-04-17T07:25:44.084Z,-11211.53
2023-04-17T07:28:50.947Z,-11207.16
2023-04-17T07:31:57.449Z,-11212.50
2023-04-17T07:35:04.642Z,-11208.84
2023-04-17T07:38:11.340Z,-11217.56
2023-04-17T07:41:19.043Z,-11219.97
2023-04-17T07:44:25.576Z,-11232.06
2023-04-17T07:47:32.219Z,-11248.66
2023-04-17T07:50:38.471Z,-11250.91
2023-04-17T07:53:45.074Z,-11256.97
2023-04-17T07:56:52.687Z,-11266.69
2023-04-17T07:59:59.160Z,-11282.28
2023-04-17T08:03:05.841Z,-11279.19
2023-04-17T08:06:12.008Z,-11282.28
2023-04-17T08:09:18.259Z,-11279.63
2023-04-17T08:12:26.142Z,-11305.81
2023-04-17T08:15:32.860Z,-11302.16
2023-04-17T08:18:39.470Z,-11296.78
2023-04-17T08:21:46.032Z,-11314.13
2023-04-17T08:24:54.869Z,-11323.13
2023-04-17T08:28:02.432Z,-11312.84
2023-04-17T08:31:10.510Z,-11301.59
2023-04-17T08:34:16.905Z,-11273.84
2023-04-17T08:37:23.021Z,-11279.19
2023-04-17T08:40:29.404Z,-11276.09
2023-04-17T08:43:37.574Z,-11283.69
2023-04-17T08:46:44.184Z,-11271.88
2023-04-17T08:49:50.776Z,-11265.97
2023-04-17T08:52:56.917Z,-11269.91
2023-04-17T08:56:08.299Z,-11269.22
2023-04-17T08:59:17.298Z,-11284.69
2023-04-17T09:02:26.059Z,-11295.25
2023-04-17T09:05:34.464Z,-11296.38
2023-04-17T09:08:54.974Z,-11275.41
2023-04-17T09:12:11.490Z,-11271.03
2023-04-17T09:15:19.747Z,-11272.44
2023-04-17T09:18:26.984Z,-11286.22
2023-04-17T09:21:33.450Z,-11284.84
2023-04-17T09:24:39.690Z,-11275.41
2023-04-17T09:27:46.184Z,-11284.41
2023-04-17T09:30:53.452Z,-11284.69
2023-04-17T09:34:01.120Z,-11283.84
2023-04-17T09:37:07.455Z,-11261.75
2023-04-17T09:40:13.692Z,-11261.31
2023-04-17T09:43:21.588Z,-11264.72
2023-04-17T09:46:40.807Z,-11260.19
2023-04-17T09:49:52.497Z,-11267.94
2023-04-17T09:52:58.887Z,-11280.88
2023-04-17T09:56:06.791Z,-11265.97
2023-04-17T09:59:13.251Z,-11287.78
2023-04-17T10:02:21.875Z,-11297.22
2023-04-17T10:05:30.289Z,-11277.50
2023-04-17T10:08:36.478Z,-11307.22
2023-04-17T10:11:46.239Z,-11330.59
2023-04-17T10:14:53.449Z,-11320.16
2023-04-17T10:18:23.247Z,-11325.66
2023-04-17T10:21:30.120Z,-11302.00
2023-04-17T10:24:36.663Z,-11293.84
2023-04-17T10:27:47.416Z,-11311.56
2023-04-17T10:30:55.568Z,-11319.31
2023-04-17T10:34:03.655Z,-11320.44
2023-04-17T10:37:15.218Z,-11318.63
2023-04-17T10:40:24.148Z,-11315.38
2023-04-17T10:43:30.575Z,-11311.56
2023-04-17T10:46:52.322Z,-11305.66
2023-04-17T10:50:00.606Z,-11318.91
2023-04-17T10:53:06.974Z,-11320.59
2023-04-17T10:56:18.534Z,-11331.84
2023-04-17T10:59:30.277Z,-11312.41
2023-04-17T11:02:37.490Z,-11349.88
2023-04-17T11:05:47.941Z,-11344.53
2023-04-17T11:08:57.408Z,-11344.81
2023-04-17T11:12:03.684Z,-11319.31
2023-04-17T11:15:10.535Z,-11329.75
2023-04-17T11:18:16.653Z,-11346.38
2023-04-17T11:21:24.461Z,-11345.94
2023-04-17T11:24:31.540Z,-11351.56
2023-04-17T11:27:37.727Z,-11343.69
2023-04-17T11:30:45.621Z,-11340.03
2023-04-17T11:33:51.933Z,-11335.50
2023-04-17T11:37:00.769Z,-11352.56
2023-04-17T11:40:10.310Z,-11347.06
2023-04-17T11:43:17.628Z,-11355.38
2023-04-17T11:46:24.844Z,-11361.56
2023-04-17T11:49:32.607Z,-11365.38
2023-04-17T11:52:40.860Z,-11371.00
2023-04-17T11:55:47.840Z,-11357.22
2023-04-17T11:58:55.755Z,-11366.09
2023-04-17T12:02:02.648Z,-11375.66
2023-04-17T12:05:15.571Z,-11368.75
2023-04-17T12:08:24.118Z,-11363.41
2023-04-17T12:11:32.792Z,-11374.69
2023-04-17T12:14:38.867Z,-11377.91
2023-04-17T12:17:44.924Z,-11377.22
2023-04-17T12:20:51.443Z,-11362.00
2023-04-17T12:23:59.115Z,-11354.81
2023-04-17T12:27:05.318Z,-11362.56
2023-04-17T12:30:13.180Z,-11362.28
2023-04-17T12:33:19.369Z,-11357.34
2023-04-17T12:36:26.014Z,-11363.41
2023-04-17T12:39:33.933Z,-11371.00
2023-04-17T12:42:48.756Z,-11379.47
2023-04-17T12:45:55.881Z,-11367.06
2023-04-17T12:49:02.079Z,-11395.81
2023-04-17T12:52:08.239Z,-11373.00
2023-04-17T12:55:15.805Z,-11398.34
2023-04-17T12:58:21.847Z,-11403.00
2023-04-17T13:01:28.146Z,-11384.53
2023-04-17T13:04:34.972Z,-11369.31
2023-04-17T13:07:41.210Z,-11359.59
2023-04-17T13:10:48.682Z,-11359.31
2023-04-17T13:13:55.132Z,-11359.19
2023-04-17T13:17:01.642Z,-11341.84
2023-04-17T13:20:08.969Z,-11357.50
2023-04-17T13:23:15.290Z,-11356.38
2023-04-17T13:26:23.338Z,-11366.50
2023-04-17T13:29:29.576Z,-11357.22
2023-04-17T13:32:36.327Z,-11367.63
2023-04-17T13:35:42.931Z,-11371.72
2023-04-17T13:38:49.349Z,-11389.34
2023-04-17T13:41:58.438Z,-11413.28
2023-04-17T13:45:05.187Z,-11387.63
2023-04-17T13:48:12.169Z,-11392.56
2023-04-17T13:51:18.688Z,-11405.13
2023-04-17T13:54:24.916Z,-11399.47
2023-04-17T13:57:32.919Z,-11385.09
2023-04-17T14:00:39.128Z,-11398.22
2023-04-17T14:03:46.266Z,-11419.63
2023-04-17T14:06:52.959Z,-11393.00
2023-04-17T14:09:59.111Z,-11421.03
2023-04-17T14:13:07.231Z,-11443.19
2023-04-17T14:16:13.731Z,-11442.06
2023-04-17T14:19:20.122Z,-11422.59
2023-04-17T14:22:26.672Z,-11396.09
2023-04-17T14:25:33.118Z,-11406.53
2023-04-17T14:28:40.760Z,-11372.56
2023-04-17T14:31:47.338Z,-11356.22
2023-04-17T14:34:54.612Z,-11357.78
2023-04-17T14:38:01.013Z,-11374.41
2023-04-17T14:41:07.416Z,-11357.78
2023-04-17T14:44:15.745Z,-11346.22
2023-04-17T14:47:22.433Z,-11340.72
2023-04-17T14:50:28.591Z,-11345.09
2023-04-17T14:53:35.026Z,-11344.53
2023-04-17T14:56:41.425Z,-11325.66
2023-04-17T14:59:49.493Z,-11322.56
2023-04-17T15:02:55.848Z,-11311.84
2023-04-17T15:06:03.327Z,-11320.59
2023-04-17T15:09:10.359Z,-11309.59
2023-04-17T15:12:16.780Z,-11314.69
2023-04-17T15:15:24.449Z,-11305.94
2023-04-17T15:18:31.041Z,-11301.72
2023-04-17T15:21:37.454Z,-11307.63
2023-04-17T15:24:43.794Z,-11300.59
2023-04-17T15:27:49.895Z,-11295.53
2023-04-17T15:30:57.943Z,-11305.38
2023-04-17T15:34:04.410Z,-11295.94
2023-04-17T15:37:11.962Z,-11292.72
2023-04-17T15:40:18.022Z,-11290.47
2023-04-17T15:43:24.753Z,-11291.88
2023-04-17T15:46:32.729Z,-11285.81
2023-04-17T15:49:38.888Z,-11285.97
2023-04-17T15:52:45.162Z,-11286.22
2023-04-17T15:55:53.375Z,-11283.69
2023-04-17T15:58:59.789Z,-11280.59
2023-04-17T16:02:08.055Z,-11274.00
2023-04-17T16:05:15.248Z,-11269.91
2023-04-17T16:08:21.659Z,-11267.38
2023-04-17T16:11:28.760Z,-11268.94
2023-04-17T16:14:35.223Z,-11262.31
2023-04-17T16:17:43.486Z,-11262.03
2023-04-17T16:20:49.790Z,-11259.50
2023-04-17T16:23:57.479Z,-11265.41
2023-04-17T16:27:04.366Z,-11260.75
2023-04-17T16:30:11.418Z,-11264.00
2023-04-17T16:33:18.878Z,-11257.66
2023-04-17T16:36:26.102Z,-11260.34
2023-04-17T16:39:32.709Z,-11265.84
2023-04-17T16:42:39.072Z,-11253.31
2023-04-17T16:45:45.373Z,-11256.13
2023-04-17T16:48:53.200Z,-11255.41
2023-04-17T16:51:59.794Z,-11254.16
2023-04-17T16:55:06.453Z,-11250.91
2023-04-17T16:58:12.596Z,-11239.09
2023-04-17T17:01:18.834Z,-11246.84
2023-04-17T17:04:26.265Z,-11244.88
2023-04-17T17:07:32.733Z,-11244.59
2023-04-17T17:10:39.093Z,-11242.75
2023-04-17T17:13:48.016Z,-11237.84
2023-04-17T17:16:54.597Z,-11232.75
2023-04-17T17:20:02.360Z,-11238.94
2023-04-17T17:23:08.436Z,-11236.00
2023-04-17T17:26:14.927Z,-11237.00
2023-04-17T17:29:21.381Z,-11231.06
2023-04-17T17:32:27.671Z,-11228.25
2023-04-17T17:35:35.228Z,-11230.38
2023-04-17T17:38:41.747Z,-11232.63
2023-04-17T17:41:48.141Z,-11229.66
2023-04-17T17:44:54.632Z,-11234.88
2023-04-17T17:48:00.915Z,-11228.13
2023-04-17T17:51:08.733Z,-11230.38
2023-04-17T17:54:15.114Z,-11230.78
2023-04-17T17:57:21.436Z,-11229.09
2023-04-17T18:00:27.762Z,-11229.66
2023-04-17T18:03:35.458Z,-11223.91
2023-04-17T18:06:43.135Z,-11230.22
2023-04-17T18:09:50.802Z,-11224.03
2023-04-17T18:12:57.421Z,-11228.25
2023-04-17T18:16:05.238Z,-11227.84
2023-04-17T18:19:11.298Z,-11225.44
2023-04-17T18:22:20.609Z,-11230.94
2023-04-17T18:25:26.490Z,-11230.78
2023-04-17T18:28:33.898Z,-11226.00
2023-04-17T18:31:39.896Z,-11222.22
2023-04-17T18:34:49.285Z,-11227.97
2023-04-17T18:37:57.584Z,-11229.66
2023-04-17T18:41:03.930Z,-11230.78
2023-04-17T18:44:09.694Z,-11229.09
2023-04-17T18:47:15.799Z,-11234.19
2023-04-17T18:50:21.996Z,-11235.31
2023-04-17T18:53:29.595Z,-11229.66
2023-04-17T18:56:35.596Z,-11230.09
2023-04-17T18:59:43.226Z,-11226.44
2023-04-17T19:02:49.648Z,-11228.41
2023-04-17T19:05:55.881Z,-11224.47
2023-04-17T19:09:03.599Z,-11225.44
2023-04-17T19:12:10.311Z,-11222.63
2023-04-17T19:15:17.762Z,-11223.34
2023-04-17T19:18:24.289Z,-11225.72
2023-04-17T19:21:31.819Z,-11222.50
2023-04-17T19:24:39.417Z,-11224.31
2023-04-17T19:27:46.141Z,-11225.59
2023-04-17T19:30:52.396Z,-11219.25
2023-04-17T19:33:58.753Z,-11222.63
2023-04-17T19:37:05.045Z,-11222.63
2023-04-17T19:40:24.237Z,-11222.22
2023-04-17T19:43:31.727Z,-11220.94
2023-04-17T19:46:37.900Z,-11221.66
2023-04-17T19:49:44.102Z,-11222.06
2023-04-17T19:52:51.625Z,-11218.41
2023-04-17T19:55:59.201Z,-11217.56
2023-04-17T19:59:06.175Z,-11221.09
2023-04-17T20:02:12.649Z,-11218.41
2023-04-17T20:05:19.569Z,-11220.38
2023-04-17T20:08:26.344Z,-11223.06
2023-04-17T20:11:34.175Z,-11223.47
2023-04-17T20:14:40.520Z,-11222.06
2023-04-17T20:17:46.800Z,-11213.06
2023-04-17T20:20:53.037Z,-11216.16
2023-04-17T20:23:59.629Z,-11219.25
2023-04-17T20:27:07.356Z,-11215.88
2023-04-17T20:30:14.617Z,-11216.31
2023-04-17T20:33:20.672Z,-11214.06
2023-04-17T20:36:27.463Z,-11212.09
2023-04-17T20:39:33.374Z,-11209.97
2023-04-17T20:42:41.146Z,-11214.75
2023-04-17T20:45:48.459Z,-11216.72
2023-04-17T20:48:54.567Z,-11218.00
2023-04-17T20:52:02.190Z,-11212.78
2023-04-17T20:55:09.381Z,-11215.19
2023-04-17T20:58:16.822Z,-11216.72
2023-04-17T21:01:23.176Z,-11219.81
2023-04-17T21:04:29.330Z,-11214.91
2023-04-17T21:07:35.493Z,-11214.06
2023-04-17T21:10:41.450Z,-11215.75
2023-04-17T21:13:49.351Z,-11214.06
2023-04-17T21:16:58.458Z,-11217.56
2023-04-17T21:20:05.663Z,-11214.63
2023-04-17T21:23:11.880Z,-11214.19
2023-04-17T21:26:18.824Z,-11213.06
2023-04-17T21:29:26.275Z,-11216.88
2023-04-17T21:32:32.240Z,-11214.91
2023-04-17T21:35:38.322Z,-11214.06
2023-04-17T21:38:44.363Z,-11212.50
2023-04-17T21:41:50.442Z,-11213.91
2023-04-17T21:44:58.032Z,-11214.63
2023-04-17T21:48:04.521Z,-11217.44
2023-04-17T21:51:10.941Z,-11213.91
2023-04-17T21:54:17.283Z,-11212.09
2023-04-17T21:57:23.488Z,-11214.19
2023-04-17T22:00:31.125Z,-11212.94
2023-04-17T22:03:38.353Z,-11209.41
2023-04-17T22:06:44.544Z,-11212.94
2023-04-17T22:09:50.542Z,-11219.25
2023-04-17T22:12:56.726Z,-11216.44
2023-04-17T22:16:04.323Z,-11215.19
2023-04-17T22:19:10.460Z,-11211.66
2023-04-17T22:22:16.607Z,-11217.00
2023-04-17T22:25:22.829Z,-11209.69
2023-04-17T22:28:31.050Z,-11206.47
2023-04-17T22:31:38.623Z,-11207.44
2023-04-17T22:34:51.145Z,-11212.22
2023-04-17T22:37:57.384Z,-11212.22
2023-04-17T22:41:04.068Z,-11215.75
2023-04-17T22:44:10.376Z,-11210.81
2023-04-17T22:47:17.861Z,-11205.34
2023-04-17T22:50:23.929Z,-11210.97
2023-04-17T22:53:31.502Z,-11212.78
2023-04-17T22:56:37.662Z,-11208.44
2023-04-17T22:59:43.918Z,-11211.38
2023-04-17T23:02:51.472Z,-11206.31
2023-04-17T23:05:57.982Z,-11207.44
2023-04-17T23:09:05.028Z,-11206.19
2023-04-17T23:12:11.330Z,-11213.34
2023-04-17T23:15:17.388Z,-11207.72
2023-04-17T23:18:25.049Z,-11208.00
2023-04-17T23:21:31.463Z,-11208.00
2023-04-17T23:24:37.252Z,-11211.94
2023-04-17T23:27:43.485Z,-11208.00
2023-04-17T23:30:49.581Z,-11209.41
2023-04-17T23:33:57.354Z,-11204.50
2023-04-17T23:37:03.691Z,-11210.25
2023-04-17T23:40:10.996Z,-11209.13
2023-04-17T23:43:16.900Z,-11207.72
2023-04-17T23:46:23.446Z,-11211.38
2023-04-17T23:49:30.843Z,-11206.88
2023-04-17T23:52:36.786Z,-11205.34
2023-04-17T23:55:43.215Z,-11208.84
2023-04-17T23:58:49.663Z,-11205.91
